Skip Navigation LinksHome page > Weather > Current weather Skip Navigation Links

Current Weather

Heathrow, London

For information only: do not use for flight planning or navigation.
Latest weather
Observation time Tuesday, September 28, 2021 10:50 AM BST
Local time Tuesday, September 28, 2021 11:16 AM BST
Flight conditions Visual Meteorological Conditions
Winds
Wind direction South-Southwest (200°)
Winds variable from 170° to 250°
Wind speed 14 mph
Visibility 6.2 mi.
Sky condition
Ceiling unlimited
Cloud layer few clouds 3,000 ft.
Temperature 61°F
Dewpoint 52°F
Altimeter 30.03 in.Hg
Derived measurements
Relative humidity 72%
Density altitude 176 ft.
Remarks
Corrected report.
METAR COR EGLL 280950Z 20012KT 170V250 9999 FEW030 16/11 Q1017 TEMPO SHRA

Settings

Location code

InnerDrive.Weather 4.0.6770.0 Release CLR 4.0.30319.42000
Copyright ©2018 Inner Drive Technology. All rights reserved. Portions Copyright ©1986-2018 David Braverman.

Find weather

Site navigation


Skip Navigation Links

Place info

Page info

PayPal - The safer, easier way to pay online!

Return home.

Copyright ©2021 Inner Drive Technology. Purveyors of fine, hand-crafted computer software. Page printed 2021-09-28T10:16:03 UTC.